createdAt,value
2023-05-16T00:00:55.557Z,97225.63
2023-05-16T00:03:43.370Z,97222.50
2023-05-16T00:06:30.331Z,97223.63
2023-05-16T00:09:17.493Z,97221.53
2023-05-16T00:12:04.678Z,97216.78
2023-05-16T00:14:52.838Z,97214.06
2023-05-16T00:17:41.053Z,97204.84
2023-05-16T00:20:29.003Z,97197.34
2023-05-16T00:23:17.123Z,97199.22
2023-05-16T00:26:04.048Z,97194.63
2023-05-16T00:28:50.852Z,97196.63
2023-05-16T00:31:37.775Z,97198.06
2023-05-16T00:34:24.695Z,97194.50
2023-05-16T00:37:11.548Z,97194.31
2023-05-16T00:39:58.411Z,97197.63
2023-05-16T00:42:45.523Z,97197.13
2023-05-16T00:45:32.352Z,97201.88
2023-05-16T00:48:19.389Z,97193.28
2023-05-16T00:51:09.360Z,97194.91
2023-05-16T00:53:57.178Z,97189.97
2023-05-16T00:56:44.112Z,97200.19
2023-05-16T00:59:31.187Z,97200.44
2023-05-16T01:02:18.274Z,97193.38
2023-05-16T01:05:05.579Z,97192.25
2023-05-16T01:07:52.387Z,97196.00
2023-05-16T01:10:55.130Z,97194.63
2023-05-16T01:13:42.337Z,97208.94
2023-05-16T01:16:32.251Z,97197.31
2023-05-16T01:19:37.822Z,97191.38
2023-05-16T01:22:49.032Z,97201.81
2023-05-16T01:25:56.626Z,97199.66
2023-05-16T01:28:46.932Z,97192.91
2023-05-16T01:31:33.969Z,97193.63
2023-05-16T01:34:20.964Z,97188.78
2023-05-16T01:37:35.390Z,97196.25
2023-05-16T01:40:46.140Z,97195.00
2023-05-16T01:43:46.299Z,97194.66
2023-05-16T01:46:38.812Z,97191.91
2023-05-16T01:49:31.435Z,97187.91
2023-05-16T01:52:35.187Z,97184.06
2023-05-16T01:55:36.968Z,97182.88
2023-05-16T01:58:28.365Z,97179.50
2023-05-16T02:01:15.816Z,97186.81
2023-05-16T02:04:03.188Z,97187.22
2023-05-16T02:06:51.131Z,97182.72
2023-05-16T02:09:37.991Z,97175.56
2023-05-16T02:12:26.317Z,97182.47
2023-05-16T02:15:14.591Z,97190.25
2023-05-16T02:18:01.457Z,97191.47
2023-05-16T02:20:48.370Z,97182.78
2023-05-16T02:23:35.273Z,97180.94
2023-05-16T02:26:22.323Z,97183.91
2023-05-16T02:29:09.704Z,97184.38
2023-05-16T02:31:56.551Z,97182.16
2023-05-16T02:34:43.487Z,97199.25
2023-05-16T02:37:30.339Z,97193.47
2023-05-16T02:40:17.274Z,97186.00
2023-05-16T02:43:04.113Z,97184.38
2023-05-16T02:45:51.034Z,97174.38
2023-05-16T02:48:37.904Z,97177.31
2023-05-16T02:51:27.149Z,97174.84
2023-05-16T02:54:14.047Z,97167.38
2023-05-16T02:57:00.923Z,97170.03
2023-05-16T02:59:48.445Z,97170.25
2023-05-16T03:02:35.332Z,97167.88
2023-05-16T03:05:22.641Z,97167.22
2023-05-16T03:08:11.125Z,97163.28
2023-05-16T03:10:58.037Z,97157.38
2023-05-16T03:13:45.081Z,97163.69
2023-05-16T03:16:36.797Z,97162.81
2023-05-16T03:19:23.920Z,97154.78
2023-05-16T03:22:12.060Z,97157.28
2023-05-16T03:24:58.943Z,97155.41
2023-05-16T03:27:46.107Z,97154.69
2023-05-16T03:30:33.021Z,97154.56
2023-05-16T03:33:20.148Z,97146.19
2023-05-16T03:36:07.456Z,97148.13
2023-05-16T03:38:54.457Z,97136.09
2023-05-16T03:41:41.294Z,97138.56
2023-05-16T03:44:28.170Z,97140.41
2023-05-16T03:47:15.079Z,97146.19
2023-05-16T03:50:01.941Z,97152.66
2023-05-16T03:52:49.019Z,97159.03
2023-05-16T03:55:36.110Z,97168.81
2023-05-16T03:58:22.976Z,97164.78
2023-05-16T04:01:09.830Z,97157.28
2023-05-16T04:03:57.852Z,97157.41
2023-05-16T04:06:45.721Z,97158.44
2023-05-16T04:09:32.780Z,97164.63
2023-05-16T04:12:19.617Z,97156.38
2023-05-16T04:15:07.291Z,97163.97
2023-05-16T04:17:54.366Z,97164.91
2023-05-16T04:20:44.635Z,97168.03
2023-05-16T04:23:31.475Z,97165.38
2023-05-16T04:26:18.339Z,97164.25
2023-05-16T04:29:06.067Z,97157.34
2023-05-16T04:31:52.951Z,97163.56
2023-05-16T04:34:40.559Z,97154.47
2023-05-16T04:37:27.666Z,97150.44
2023-05-16T04:40:15.032Z,97146.59
2023-05-16T04:43:01.900Z,97149.50
2023-05-16T04:45:48.998Z,97149.81
2023-05-16T04:48:35.906Z,97158.06
2023-05-16T04:51:22.747Z,97162.41
2023-05-16T04:54:10.723Z,97154.94
2023-05-16T04:56:57.558Z,97158.56
2023-05-16T04:59:44.365Z,97154.41
2023-05-16T05:02:31.326Z,97153.84
2023-05-16T05:05:18.335Z,97157.88
2023-05-16T05:08:05.539Z,97144.81
2023-05-16T05:10:52.359Z,97128.81
2023-05-16T05:13:39.330Z,97123.34
2023-05-16T05:16:26.584Z,97127.06
2023-05-16T05:19:13.422Z,97142.78
2023-05-16T05:22:00.340Z,97160.47
2023-05-16T05:24:47.246Z,97152.81
2023-05-16T05:27:34.251Z,97157.44
2023-05-16T05:30:21.453Z,97150.81
2023-05-16T05:33:11.027Z,97157.28
2023-05-16T05:35:57.955Z,97156.41
2023-05-16T05:38:44.756Z,97150.47
2023-05-16T05:41:31.907Z,97156.25
2023-05-16T05:44:18.712Z,97157.22
2023-05-16T05:47:09.032Z,97161.38
2023-05-16T05:49:56.176Z,97165.09
2023-05-16T05:52:43.235Z,97161.31
2023-05-16T05:55:30.146Z,97166.53
2023-05-16T05:58:18.281Z,97170.63
2023-05-16T06:01:05.150Z,97173.06
2023-05-16T06:03:52.015Z,97171.03
2023-05-16T06:06:40.102Z,97177.50
2023-05-16T06:09:26.990Z,97172.47
2023-05-16T06:12:13.859Z,97173.63
2023-05-16T06:15:00.917Z,97165.09
2023-05-16T06:17:47.791Z,97170.31
2023-05-16T06:20:34.715Z,97162.47
2023-05-16T06:23:22.108Z,97163.84
2023-05-16T06:26:09.006Z,97163.66
2023-05-16T06:28:55.980Z,97157.56
2023-05-16T06:31:42.954Z,97156.09
2023-05-16T06:34:29.807Z,97145.06
2023-05-16T06:37:17.085Z,97144.81
2023-05-16T06:40:04.679Z,97151.50
2023-05-16T06:42:51.605Z,97152.47
2023-05-16T06:45:38.535Z,97167.06
2023-05-16T06:48:25.670Z,97161.59
2023-05-16T06:51:12.591Z,97168.03
2023-05-16T06:53:59.957Z,97161.03
2023-05-16T06:56:47.884Z,97164.31
2023-05-16T06:59:35.979Z,97163.59
2023-05-16T07:02:22.927Z,97157.13
2023-05-16T07:05:10.304Z,97160.44
2023-05-16T07:07:57.284Z,97163.56
2023-05-16T07:10:44.618Z,97161.16
2023-05-16T07:13:32.482Z,97162.88
2023-05-16T07:16:20.638Z,97152.97
2023-05-16T07:19:08.581Z,97148.50
2023-05-16T07:21:55.531Z,97158.41
2023-05-16T07:24:42.404Z,97155.81
2023-05-16T07:27:29.279Z,97154.72
2023-05-16T07:30:16.189Z,97160.50
2023-05-16T07:33:03.178Z,97168.97
2023-05-16T07:35:51.119Z,97159.41
2023-05-16T07:38:38.282Z,97163.72
2023-05-16T07:41:25.596Z,97167.03
2023-05-16T07:44:12.656Z,97173.25
2023-05-16T07:46:59.586Z,97173.34
2023-05-16T07:49:46.475Z,97178.84
2023-05-16T07:52:33.317Z,97186.75
2023-05-16T07:55:22.181Z,97187.81
2023-05-16T07:58:09.095Z,97193.88
2023-05-16T08:00:56.087Z,97186.22
2023-05-16T08:03:43.115Z,97195.63
2023-05-16T08:06:30.129Z,97188.56
2023-05-16T08:09:16.977Z,97189.09
2023-05-16T08:12:04.089Z,97200.47
2023-05-16T08:14:51.264Z,97200.09
2023-05-16T08:17:38.743Z,97184.31
2023-05-16T08:20:26.343Z,97190.03
2023-05-16T08:23:14.714Z,97188.03
2023-05-16T08:26:01.752Z,97183.38
2023-05-16T08:28:49.145Z,97171.19
2023-05-16T08:31:36.033Z,97168.44
2023-05-16T08:34:22.973Z,97172.38
2023-05-16T08:37:10.791Z,97175.13
2023-05-16T08:39:58.717Z,97169.38
2023-05-16T08:42:45.892Z,97178.78
2023-05-16T08:45:33.138Z,97176.75
2023-05-16T08:48:25.908Z,97163.25
2023-05-16T08:51:22.490Z,97155.72
2023-05-16T08:54:14.074Z,97154.22
2023-05-16T08:57:02.482Z,97145.97
2023-05-16T08:59:49.996Z,97141.34
2023-05-16T09:02:38.272Z,97127.97
2023-05-16T09:05:26.151Z,97136.59
2023-05-16T09:08:13.310Z,97137.56
2023-05-16T09:11:02.467Z,97128.53
2023-05-16T09:13:49.827Z,97126.97
2023-05-16T09:16:36.765Z,97133.66
2023-05-16T09:19:23.757Z,97132.63
2023-05-16T09:22:13.637Z,97125.56
2023-05-16T09:25:00.736Z,97125.56
2023-05-16T09:27:48.681Z,97125.09
2023-05-16T09:30:35.732Z,97117.81
2023-05-16T09:33:23.914Z,97112.53
2023-05-16T09:36:10.831Z,97119.22
2023-05-16T09:39:05.635Z,97123.66
2023-05-16T09:41:52.693Z,97120.41
2023-05-16T09:44:40.712Z,97120.41
2023-05-16T09:47:28.492Z,97126.13
2023-05-16T09:50:18.151Z,97119.28
2023-05-16T09:53:05.889Z,97122.25
2023-05-16T09:56:08.035Z,97126.47
2023-05-16T09:58:54.918Z,97133.91
2023-05-16T10:01:42.473Z,97143.88
2023-05-16T10:04:29.577Z,97156.56
2023-05-16T10:07:19.939Z,97169.31
2023-05-16T10:10:08.550Z,97169.31
2023-05-16T10:12:58.873Z,97169.50
2023-05-16T10:15:47.361Z,97177.75
2023-05-16T10:18:35.894Z,97189.19
2023-05-16T10:21:25.952Z,97183.34
2023-05-16T10:24:17.649Z,97166.09
2023-05-16T10:27:05.374Z,97168.00
2023-05-16T10:29:54.995Z,97177.69
2023-05-16T10:32:42.941Z,97189.69
2023-05-16T10:35:31.351Z,97198.38
2023-05-16T10:38:19.949Z,97180.78
2023-05-16T10:41:07.853Z,97170.53
2023-05-16T10:43:59.213Z,97164.34
2023-05-16T10:46:48.102Z,97166.91
2023-05-16T10:49:35.110Z,97170.63
2023-05-16T10:52:33.883Z,97174.94
2023-05-16T10:55:20.789Z,97170.34
2023-05-16T10:58:08.181Z,97170.00
2023-05-16T11:01:21.081Z,97175.50
2023-05-16T11:04:10.418Z,97174.19
2023-05-16T11:06:58.091Z,97180.13
2023-05-16T11:09:45.918Z,97183.06
2023-05-16T11:12:39.157Z,97176.56
2023-05-16T11:15:28.549Z,97174.44
2023-05-16T11:18:17.192Z,97174.19
2023-05-16T11:21:04.877Z,97176.53
2023-05-16T11:24:30.672Z,97185.38
2023-05-16T11:27:31.511Z,97172.72
2023-05-16T11:30:22.017Z,97170.59
2023-05-16T11:33:09.056Z,97190.69
2023-05-16T11:39:06.706Z,97181.81
2023-05-16T11:41:54.197Z,97180.69
2023-05-16T11:44:41.361Z,97174.63
2023-05-16T11:47:29.896Z,97183.25
2023-05-16T11:50:22.104Z,97184.16
2023-05-16T11:53:09.212Z,97169.88
2023-05-16T11:55:57.090Z,97153.16
2023-05-16T11:58:44.517Z,97133.22
2023-05-16T12:01:39.316Z,97143.34
2023-05-16T12:04:26.752Z,97157.81
2023-05-16T12:07:13.766Z,97167.50
2023-05-16T12:10:05.292Z,97171.47
2023-05-16T12:12:54.813Z,97179.25
2023-05-16T12:15:43.049Z,97174.72
2023-05-16T12:18:30.171Z,97154.09
2023-05-16T12:21:17.478Z,97167.38
2023-05-16T12:24:04.808Z,97158.22
2023-05-16T12:26:53.542Z,97157.28
2023-05-16T12:29:40.776Z,97173.09
2023-05-16T12:32:27.818Z,97169.88
2023-05-16T12:35:18.510Z,97170.84
2023-05-16T12:38:09.671Z,97168.31
2023-05-16T12:40:59.462Z,97151.22
2023-05-16T12:43:46.461Z,97149.63
2023-05-16T12:46:33.518Z,97144.88
2023-05-16T12:49:22.771Z,97144.19
2023-05-16T12:52:17.775Z,97147.66
2023-05-16T12:55:05.106Z,97157.81
2023-05-16T12:57:52.108Z,97147.28
2023-05-16T13:00:39.418Z,97140.13
2023-05-16T13:03:26.381Z,97149.69
2023-05-16T13:06:13.348Z,97144.34
2023-05-16T13:09:00.414Z,97147.97
2023-05-16T13:11:47.588Z,97149.78
2023-05-16T13:14:34.554Z,97154.91
2023-05-16T13:17:21.542Z,97150.44
2023-05-16T13:20:10.095Z,97145.56
2023-05-16T13:22:57.352Z,97138.75
2023-05-16T13:25:44.300Z,97137.19
2023-05-16T13:28:32.173Z,97142.66
2023-05-16T13:31:19.467Z,97131.56
2023-05-16T13:34:06.971Z,97129.75
2023-05-16T13:36:54.916Z,97128.81
2023-05-16T13:39:42.493Z,97139.13
2023-05-16T13:42:29.345Z,97145.84
2023-05-16T13:45:16.272Z,97149.44
2023-05-16T13:48:03.268Z,97144.91
2023-05-16T13:50:50.189Z,97136.06
2023-05-16T13:53:37.118Z,97131.16
2023-05-16T13:56:23.988Z,97132.47
2023-05-16T13:59:15.246Z,97125.06
2023-05-16T14:02:05.435Z,97126.56
2023-05-16T14:04:53.217Z,97128.00
2023-05-16T14:07:40.080Z,97121.72
2023-05-16T14:10:27.205Z,97128.78
2023-05-16T14:13:14.372Z,97133.78
2023-05-16T14:16:02.376Z,97134.72
2023-05-16T14:18:49.860Z,97130.19
2023-05-16T14:21:36.721Z,97137.22
2023-05-16T14:24:23.631Z,97139.56
2023-05-16T14:27:10.672Z,97130.69
2023-05-16T14:29:58.935Z,97135.72
2023-05-16T14:32:45.805Z,97136.88
2023-05-16T14:35:33.117Z,97136.88
2023-05-16T14:38:20.901Z,97135.13
2023-05-16T14:41:07.808Z,97137.13
2023-05-16T14:43:56.172Z,97150.75
2023-05-16T14:46:44.066Z,97140.44
2023-05-16T14:49:31.121Z,97147.56
2023-05-16T14:52:18.012Z,97132.47
2023-05-16T14:55:06.164Z,97130.38
2023-05-16T14:57:59.245Z,97112.47
2023-05-16T15:00:46.740Z,97107.06
2023-05-16T15:03:43.297Z,97101.69
2023-05-16T15:06:35.264Z,97097.09
2023-05-16T15:09:24.825Z,97103.97
2023-05-16T15:12:11.706Z,97110.25
2023-05-16T15:14:58.725Z,97119.84
2023-05-16T15:17:45.695Z,97123.09
2023-05-16T15:20:33.385Z,97132.31
2023-05-16T15:23:20.828Z,97133.31
2023-05-16T15:26:07.722Z,97131.47
2023-05-16T15:28:55.683Z,97134.06
2023-05-16T15:31:42.676Z,97135.50
2023-05-16T15:34:29.652Z,97130.53
2023-05-16T15:37:17.335Z,97135.84
2023-05-16T15:40:05.104Z,97139.75
2023-05-16T15:42:52.191Z,97140.47
2023-05-16T15:45:40.495Z,97132.81
2023-05-16T15:48:27.608Z,97139.56
2023-05-16T15:51:15.882Z,97142.28
2023-05-16T15:54:02.967Z,97136.25
2023-05-16T15:56:49.812Z,97140.41
2023-05-16T15:59:36.698Z,97141.56
2023-05-16T16:02:23.631Z,97140.72
2023-05-16T16:05:10.813Z,97136.81
2023-05-16T16:07:57.663Z,97135.13
2023-05-16T16:10:47.695Z,97132.94
2023-05-16T16:13:34.937Z,97137.97
2023-05-16T16:16:21.913Z,97134.66
2023-05-16T16:19:08.852Z,97141.16
2023-05-16T16:21:55.801Z,97143.25
2023-05-16T16:24:42.738Z,97143.66
2023-05-16T16:27:29.633Z,97143.06
2023-05-16T16:30:16.560Z,97144.25
2023-05-16T16:33:03.804Z,97150.19
2023-05-16T16:35:52.035Z,97155.66
2023-05-16T16:38:39.060Z,97151.78
2023-05-16T16:41:26.061Z,97150.81
2023-05-16T16:44:13.180Z,97153.53
2023-05-16T16:47:00.085Z,97158.00
2023-05-16T16:49:47.065Z,97155.88
2023-05-16T16:52:35.617Z,97156.94
2023-05-16T16:55:22.503Z,97160.91
2023-05-16T16:58:09.347Z,97164.63
2023-05-16T17:00:56.256Z,97158.13
2023-05-16T17:03:43.267Z,97170.41
2023-05-16T17:06:30.405Z,97172.84
2023-05-16T17:09:17.994Z,97170.38
2023-05-16T17:12:08.435Z,97177.44
2023-05-16T17:14:57.195Z,97181.88
2023-05-16T17:17:45.634Z,97182.22
2023-05-16T17:20:33.461Z,97177.72
2023-05-16T17:23:20.321Z,97184.94
2023-05-16T17:26:07.626Z,97179.59
2023-05-16T17:28:56.656Z,97180.16
2023-05-16T17:31:43.566Z,97169.91
2023-05-16T17:34:31.345Z,97170.78
2023-05-16T17:37:18.240Z,97164.72
2023-05-16T17:40:09.949Z,97169.22
2023-05-16T17:42:57.107Z,97180.91
2023-05-16T17:45:44.304Z,97185.69
2023-05-16T17:48:31.164Z,97194.03
2023-05-16T17:51:18.038Z,97196.78
2023-05-16T17:54:04.907Z,97195.47
2023-05-16T17:56:53.574Z,97200.78
2023-05-16T17:59:40.432Z,97199.81
2023-05-16T18:02:27.416Z,97202.38
2023-05-16T18:05:16.403Z,97197.94
2023-05-16T18:08:03.771Z,97203.84
2023-05-16T18:10:52.499Z,97210.22
2023-05-16T18:13:39.913Z,97206.75
2023-05-16T18:16:26.948Z,97198.06
2023-05-16T18:19:14.193Z,97197.22
2023-05-16T18:22:01.180Z,97205.00
2023-05-16T18:24:48.177Z,97191.91
2023-05-16T18:27:35.977Z,97208.47
2023-05-16T18:30:23.466Z,97201.84
2023-05-16T18:33:10.443Z,97207.88
2023-05-16T18:35:57.326Z,97209.63
2023-05-16T18:38:44.303Z,97203.41
2023-05-16T18:41:31.282Z,97200.81
2023-05-16T18:44:18.189Z,97205.31
2023-05-16T18:47:05.375Z,97205.88
2023-05-16T18:49:52.668Z,97201.81
2023-05-16T18:52:40.654Z,97213.50
2023-05-16T18:55:28.158Z,97216.25
2023-05-16T18:58:15.859Z,97206.16
2023-05-16T19:01:03.927Z,97211.72
2023-05-16T19:03:51.261Z,97215.72
2023-05-16T19:06:38.207Z,97217.47
2023-05-16T19:09:25.254Z,97222.63
2023-05-16T19:12:12.416Z,97230.25
2023-05-16T19:14:59.427Z,97228.94
2023-05-16T19:17:47.198Z,97230.06
2023-05-16T19:20:35.653Z,97233.25
2023-05-16T19:23:22.526Z,97234.66
2023-05-16T19:26:09.426Z,97246.25
2023-05-16T19:28:56.541Z,97245.75
2023-05-16T19:31:43.402Z,97244.09
2023-05-16T19:34:30.338Z,97247.16
2023-05-16T19:37:17.321Z,97247.66
2023-05-16T19:40:04.981Z,97244.06
2023-05-16T19:42:51.967Z,97247.19
2023-05-16T19:45:38.863Z,97255.25
2023-05-16T19:48:25.948Z,97262.03
2023-05-16T19:51:12.938Z,97257.69
2023-05-16T19:53:59.839Z,97263.00
2023-05-16T19:56:52.764Z,97265.31
2023-05-16T19:59:39.549Z,97261.72
2023-05-16T20:02:26.537Z,97262.19
2023-05-16T20:05:14.656Z,97267.34
2023-05-16T20:08:01.691Z,97272.06
2023-05-16T20:10:48.575Z,97272.91
2023-05-16T20:13:35.749Z,97267.34
2023-05-16T20:16:22.636Z,97272.97
2023-05-16T20:19:09.607Z,97275.38
2023-05-16T20:21:56.748Z,97267.19
2023-05-16T20:24:43.619Z,97269.81
2023-05-16T20:27:31.807Z,97275.28
2023-05-16T20:30:19.002Z,97274.09
2023-05-16T20:33:06.088Z,97273.75
2023-05-16T20:35:52.979Z,97279.28
2023-05-16T20:38:39.963Z,97282.72
2023-05-16T20:41:26.807Z,97285.31
2023-05-16T20:44:14.603Z,97286.25
2023-05-16T20:47:01.603Z,97290.84
2023-05-16T20:49:48.559Z,97288.84
2023-05-16T20:52:35.490Z,97293.53
2023-05-16T20:55:23.307Z,97292.88
2023-05-16T20:58:10.149Z,97290.56
2023-05-16T21:00:57.051Z,97290.66
2023-05-16T21:03:43.990Z,97290.81
2023-05-16T21:06:31.481Z,97294.03
2023-05-16T21:09:18.339Z,97300.13
2023-05-16T21:12:05.777Z,97300.72
2023-05-16T21:14:52.752Z,97298.16
2023-05-16T21:17:40.975Z,97307.88
2023-05-16T21:20:30.046Z,97317.00
2023-05-16T21:23:16.955Z,97313.25
2023-05-16T21:26:03.820Z,97317.09
2023-05-16T21:28:55.208Z,97320.72
2023-05-16T21:31:42.639Z,97328.19
2023-05-16T21:34:29.539Z,97330.34
2023-05-16T21:37:16.867Z,97333.97
2023-05-16T21:40:04.196Z,97332.53
2023-05-16T21:42:52.520Z,97334.34
2023-05-16T21:45:40.345Z,97335.88
2023-05-16T21:48:27.307Z,97348.56
2023-05-16T21:51:14.234Z,97351.44
2023-05-16T21:54:03.041Z,97351.06
2023-05-16T21:56:49.952Z,97355.72
2023-05-16T21:59:36.815Z,97365.38
2023-05-16T22:02:23.936Z,97361.03
2023-05-16T22:05:11.299Z,97362.56
2023-05-16T22:07:58.386Z,97373.88
2023-05-16T22:10:45.271Z,97377.94
2023-05-16T22:13:32.186Z,97374.47
2023-05-16T22:16:19.167Z,97381.16
2023-05-16T22:19:06.730Z,97379.31
2023-05-16T22:21:53.665Z,97387.66
2023-05-16T22:24:40.546Z,97384.53
2023-05-16T22:27:27.413Z,97388.56
2023-05-16T22:30:14.367Z,97390.34
2023-05-16T22:33:03.523Z,97389.22
2023-05-16T22:35:50.849Z,97393.41
2023-05-16T22:38:37.764Z,97399.34
2023-05-16T22:41:24.685Z,97396.44
2023-05-16T22:44:11.553Z,97397.88
2023-05-16T22:46:58.444Z,97407.41
2023-05-16T22:49:45.280Z,97403.41
2023-05-16T22:52:32.294Z,97403.91
2023-05-16T22:55:19.220Z,97404.03
2023-05-16T22:58:06.110Z,97404.91
2023-05-16T23:00:53.052Z,97408.84
2023-05-16T23:03:39.976Z,97411.81
2023-05-16T23:06:26.935Z,97404.09
2023-05-16T23:09:13.822Z,97418.66
2023-05-16T23:12:01.627Z,97411.53
2023-05-16T23:14:48.582Z,97414.03
2023-05-16T23:17:39.284Z,97416.16
2023-05-16T23:20:26.410Z,97412.09
2023-05-16T23:23:13.253Z,97412.84
2023-05-16T23:26:00.248Z,97427.53
2023-05-16T23:28:47.101Z,97421.75
2023-05-16T23:31:33.986Z,97428.84
2023-05-16T23:34:20.853Z,97427.94
2023-05-16T23:37:07.720Z,97431.88
2023-05-16T23:39:54.570Z,97429.16
2023-05-16T23:42:41.535Z,97430.59
2023-05-16T23:45:30.286Z,97438.06
2023-05-16T23:48:17.447Z,97439.25
2023-05-16T23:51:07.373Z,97439.91
2023-05-16T23:53:54.323Z,97437.34
2023-05-16T23:56:41.234Z,97446.97
2023-05-16T23:59:28.186Z,97440.88
